Time;durP1;ratioP1;P1;durP2;ratioP2;P2;SDS_P1;SDS_P2;PMS_P1;PMS_P2;Temp;Humidity;BMP_temperature;BMP_pressure;BME280_temperature;BME280_humidity;BME280_pressure;Samples;Min_cycle;Max_cycle;Signal;HPM_P1;HPM_P2
2021/10/03 00:01:24;;;;;;;1.17;0.90;;;17.80;99.90;;;;;;5080784;28;20145;-77
2021/10/03 00:03:53;;;;;;;1.08;0.98;;;17.80;99.90;;;;;;5080973;28;20089;-78
2021/10/03 00:06:20;;;;;;;1.52;1.42;;;17.80;99.90;;;;;;5086781;28;20035;-78
2021/10/03 00:08:46;;;;;;;0.73;0.70;;;17.80;99.90;;;;;;5076235;28;20165;-78
2021/10/03 00:11:13;;;;;;;1.70;0.77;;;17.90;99.90;;;;;;5082637;28;20092;-78
2021/10/03 00:13:40;;;;;;;4.10;0.80;;;17.90;99.90;;;;;;5072067;28;20377;-78
2021/10/03 00:16:07;;;;;;;0.75;0.43;;;17.90;99.90;;;;;;5061874;28;20021;-77
2021/10/03 00:18:34;;;;;;;0.93;0.70;;;17.90;99.90;;;;;;5069209;28;20751;-78
2021/10/03 00:21:01;;;;;;;1.08;0.70;;;17.90;99.90;;;;;;5062747;28;20020;-79
2021/10/03 00:23:29;;;;;;;0.70;0.70;;;17.90;99.90;;;;;;5083550;28;20054;-78
2021/10/03 00:25:56;;;;;;;1.60;0.80;;;18.00;99.90;;;;;;5084504;28;20028;-79
2021/10/03 00:28:23;;;;;;;0.85;0.60;;;17.90;99.90;;;;;;5085023;28;20500;-79
2021/10/03 00:30:49;;;;;;;1.85;0.70;;;18.00;99.90;;;;;;5060147;28;20140;-79
2021/10/03 00:33:15;;;;;;;0.70;0.70;;;18.00;99.90;;;;;;5085582;28;20378;-78
2021/10/03 00:35:42;;;;;;;1.50;0.68;;;18.00;99.90;;;;;;5083041;28;20020;-79
2021/10/03 00:38:09;;;;;;;0.80;0.70;;;18.00;99.90;;;;;;5078150;28;20554;-78
2021/10/03 00:40:38;;;;;;;0.65;0.50;;;18.00;99.90;;;;;;5088664;28;20024;-79
2021/10/03 00:43:05;;;;;;;0.70;0.70;;;17.90;99.90;;;;;;5078113;28;20028;-79
2021/10/03 00:45:32;;;;;;;1.70;0.60;;;17.90;99.90;;;;;;5078765;28;20021;-79
2021/10/03 00:47:59;;;;;;;5.88;5.35;;;17.90;99.90;;;;;;5077660;28;20033;-78
2021/10/03 00:50:28;;;;;;;0.80;0.73;;;17.90;99.90;;;;;;5062320;28;20029;-78
2021/10/03 00:52:55;;;;;;;0.57;0.57;;;18.00;99.90;;;;;;5061283;28;20020;-78
2021/10/03 00:55:22;;;;;;;0.95;0.60;;;17.90;99.90;;;;;;5080447;28;20016;-79
2021/10/03 00:57:51;;;;;;;2.80;0.90;;;17.90;99.90;;;;;;5080254;28;20029;-80
2021/10/03 01:00:22;;;;;;;0.60;0.60;;;17.80;99.90;;;;;;5087758;28;20149;-78
2021/10/03 01:02:49;;;;;;;1.85;0.93;;;17.80;99.90;;;;;;5074705;28;20063;-79
2021/10/03 01:05:16;;;;;;;0.57;0.55;;;17.90;99.90;;;;;;5079236;28;20456;-78
2021/10/03 01:07:42;;;;;;;0.70;0.60;;;17.90;99.90;;;;;;5081206;28;20040;-78
2021/10/03 01:10:13;;;;;;;0.73;0.73;;;17.90;99.90;;;;;;5085038;28;20601;-79
2021/10/03 01:12:40;;;;;;;1.05;0.80;;;17.90;99.90;;;;;;5073530;28;20069;-80
2021/10/03 01:15:08;;;;;;;1.00;0.60;;;17.90;99.90;;;;;;5074356;28;20012;-79
2021/10/03 01:17:35;;;;;;;0.73;0.73;;;17.90;99.90;;;;;;5070400;28;20080;-78
2021/10/03 01:20:01;;;;;;;1.80;0.82;;;18.00;99.90;;;;;;5079174;28;20100;-79
2021/10/03 01:22:29;;;;;;;2.45;1.00;;;18.00;99.90;;;;;;5088730;28;20153;-78
2021/10/03 01:24:58;;;;;;;0.88;0.60;;;18.00;99.90;;;;;;5076424;28;20553;-78
2021/10/03 01:27:25;;;;;;;0.65;0.65;;;17.90;99.90;;;;;;5083557;28;20043;-78
2021/10/03 01:29:51;;;;;;;1.55;0.82;;;18.00;99.90;;;;;;5079922;28;20040;-78
2021/10/03 01:32:18;;;;;;;2.47;0.57;;;18.00;99.90;;;;;;5086806;28;20392;-77
2021/10/03 01:34:44;;;;;;;1.08;0.70;;;17.90;99.90;;;;;;5075252;28;20477;-78
2021/10/03 01:37:11;;;;;;;2.42;0.90;;;18.00;99.90;;;;;;5085783;28;20051;-78
2021/10/03 01:39:39;;;;;;;1.67;0.80;;;18.00;99.90;;;;;;5082022;28;20012;-78
2021/10/03 01:42:05;;;;;;;1.02;0.63;;;18.00;99.90;;;;;;5078098;28;20094;-78
2021/10/03 01:44:33;;;;;;;0.82;0.60;;;17.90;99.90;;;;;;5087904;28;20028;-77
2021/10/03 01:46:58;;;;;;;1.00;0.60;;;17.90;99.90;;;;;;5064212;28;20573;-78
2021/10/03 01:49:27;;;;;;;1.10;0.57;;;17.90;99.90;;;;;;5084012;28;20039;-78
2021/10/03 01:51:53;;;;;;;0.90;0.63;;;18.00;99.90;;;;;;5084247;28;20016;-78
2021/10/03 01:54:19;;;;;;;0.95;0.60;;;18.00;99.90;;;;;;5089255;28;20379;-77
2021/10/03 01:56:45;;;;;;;2.45;0.80;;;18.00;99.90;;;;;;5079005;28;20543;-78
2021/10/03 01:59:12;;;;;;;0.82;0.70;;;18.00;99.90;;;;;;5089595;28;20025;-78
2021/10/03 02:01:43;;;;;;;0.80;0.65;;;18.00;99.90;;;;;;5085897;28;20103;-78
2021/10/03 02:04:25;;;;;;;1.00;0.68;;;18.00;99.90;;;;;;5080025;28;20020;-79
2021/10/03 02:06:53;;;;;;;2.45;0.43;;;18.00;99.90;;;;;;5068054;28;20078;-78
2021/10/03 02:09:22;;;;;;;2.28;0.80;;;18.10;99.90;;;;;;5087152;28;20027;-78
2021/10/03 02:11:52;;;;;;;1.23;0.70;;;18.10;99.90;;;;;;5075005;28;20060;-77
2021/10/03 02:14:20;;;;;;;1.00;0.60;;;18.10;99.90;;;;;;5088348;28;20031;-77
2021/10/03 02:16:48;;;;;;;0.55;0.35;;;18.10;99.90;;;;;;5075478;28;20506;-79
2021/10/03 02:19:15;;;;;;;2.70;0.60;;;18.10;99.90;;;;;;5088034;28;20017;-78
2021/10/03 02:21:41;;;;;;;2.00;0.65;;;18.10;99.90;;;;;;5086116;28;20016;-78
2021/10/03 02:24:11;;;;;;;0.98;0.47;;;18.00;99.90;;;;;;5081047;28;20029;-79
2021/10/03 02:26:37;;;;;;;0.43;0.40;;;18.00;99.90;;;;;;5091571;28;20040;-78
2021/10/03 02:29:04;;;;;;;1.88;0.68;;;18.00;99.90;;;;;;5080121;28;20047;-78
2021/10/03 02:31:31;;;;;;;0.88;0.60;;;18.00;99.90;;;;;;5086249;28;20020;-78
2021/10/03 02:33:57;;;;;;;0.63;0.63;;;18.10;99.90;;;;;;5087157;28;20046;-79
2021/10/03 02:36:23;;;;;;;1.05;0.95;;;18.00;99.90;;;;;;5080587;28;20016;-78
2021/10/03 02:38:50;;;;;;;1.27;0.60;;;18.10;99.90;;;;;;5078222;28;20672;-79
2021/10/03 02:41:18;;;;;;;1.02;0.90;;;18.10;99.90;;;;;;5088376;28;20016;-78
2021/10/03 02:43:50;;;;;;;0.93;0.85;;;18.10;99.90;;;;;;5074121;28;20028;-78
2021/10/03 02:46:18;;;;;;;0.82;0.82;;;18.10;99.90;;;;;;5068736;28;20087;-78
2021/10/03 02:48:49;;;;;;;1.85;1.30;;;18.00;99.90;;;;;;5090030;28;20028;-79
2021/10/03 02:51:21;;;;;;;1.30;1.08;;;18.00;99.90;;;;;;5082298;28;20020;-78
2021/10/03 02:53:47;;;;;;;2.55;1.30;;;18.00;99.90;;;;;;5083446;28;20021;-78
2021/10/03 02:56:19;;;;;;;2.95;1.13;;;18.00;99.90;;;;;;5090314;28;20036;-79
2021/10/03 02:58:45;;;;;;;3.17;1.42;;;18.10;99.90;;;;;;5077968;28;20016;-78
2021/10/03 03:01:12;;;;;;;1.55;1.45;;;18.10;99.90;;;;;;5088164;28;20078;-81
2021/10/03 03:03:38;;;;;;;2.95;1.83;;;18.10;99.90;;;;;;5084365;28;20020;-78
2021/10/03 03:06:05;;;;;;;2.17;1.65;;;18.10;99.90;;;;;;5079566;28;20052;-79
2021/10/03 03:08:32;;;;;;;2.17;1.85;;;18.10;99.90;;;;;;5090485;28;20111;-79
2021/10/03 03:10:57;;;;;;;3.40;1.63;;;18.10;99.90;;;;;;5074242;28;20142;-80
2021/10/03 03:13:23;;;;;;;4.05;2.10;;;18.10;99.90;;;;;;5084276;28;20046;-78
2021/10/03 03:15:49;;;;;;;2.90;2.00;;;18.10;99.90;;;;;;5069661;28;20021;-79
2021/10/03 03:18:15;;;;;;;3.85;2.38;;;18.10;99.90;;;;;;5083594;28;20024;-79
2021/10/03 03:20:43;;;;;;;2.88;2.20;;;18.10;99.90;;;;;;5077512;28;20532;-78
2021/10/03 03:23:09;;;;;;;3.72;2.28;;;18.10;99.90;;;;;;5088640;28;20020;-79
2021/10/03 03:25:36;;;;;;;3.17;2.70;;;18.10;99.90;;;;;;5082653;28;20016;-78
2021/10/03 03:28:04;;;;;;;4.25;2.30;;;18.10;99.90;;;;;;5079668;28;20035;-78
2021/10/03 03:30:31;;;;;;;4.07;2.53;;;18.00;99.90;;;;;;5090481;28;20020;-78
2021/10/03 03:32:57;;;;;;;4.22;2.60;;;18.10;99.90;;;;;;5078763;28;20012;-78
2021/10/03 03:35:24;;;;;;;2.90;2.50;;;18.00;99.90;;;;;;5086420;28;20112;-79
2021/10/03 03:37:51;;;;;;;3.00;2.80;;;18.00;99.90;;;;;;5089494;28;20380;-77
2021/10/03 03:40:19;;;;;;;2.85;2.65;;;18.00;99.90;;;;;;5078357;28;20119;-80
2021/10/03 03:42:46;;;;;;;5.70;2.95;;;18.00;99.90;;;;;;5079853;28;20078;-79
2021/10/03 03:45:13;;;;;;;6.85;3.30;;;18.00;99.90;;;;;;5083680;28;20519;-80
2021/10/03 03:47:40;;;;;;;4.45;3.25;;;18.00;99.90;;;;;;5073435;28;20039;-79
2021/10/03 03:50:12;;;;;;;3.50;2.95;;;18.00;99.90;;;;;;5079906;28;20025;-78
2021/10/03 03:52:39;;;;;;;4.05;3.13;;;18.00;99.90;;;;;;5092372;28;20023;-81
2021/10/03 03:55:06;;;;;;;3.83;3.42;;;18.00;99.90;;;;;;5087976;28;20028;-79
2021/10/03 03:57:32;;;;;;;5.78;3.35;;;17.90;99.90;;;;;;5082932;28;20023;-80
2021/10/03 03:59:59;;;;;;;4.95;3.83;;;17.90;99.90;;;;;;5080992;28;20036;-77
2021/10/03 04:02:25;;;;;;;4.72;3.15;;;17.90;99.90;;;;;;5090311;28;20095;-79
2021/10/03 04:04:51;;;;;;;5.50;3.53;;;17.90;99.90;;;;;;5067021;28;20048;-78
2021/10/03 04:07:20;;;;;;;5.78;3.85;;;17.90;99.90;;;;;;5079475;28;20036;-79
2021/10/03 04:09:47;;;;;;;5.30;3.60;;;17.90;99.90;;;;;;5080844;28;20035;-79
2021/10/03 04:12:13;;;;;;;5.38;3.80;;;17.80;99.90;;;;;;5073416;28;20029;-79
2021/10/03 04:14:40;;;;;;;3.95;3.65;;;17.80;99.90;;;;;;5089829;28;20054;-81
2021/10/03 04:17:06;;;;;;;5.50;4.53;;;17.80;99.90;;;;;;5065385;28;20028;-78
2021/10/03 04:19:32;;;;;;;5.47;4.95;;;17.70;99.90;;;;;;5084372;28;20012;-80
2021/10/03 04:22:00;;;;;;;6.78;4.90;;;17.70;99.90;;;;;;5085957;28;20055;-78
2021/10/03 04:24:25;;;;;;;6.72;4.75;;;17.70;99.90;;;;;;5076433;28;20024;-78
2021/10/03 04:26:52;;;;;;;7.72;4.28;;;17.70;99.90;;;;;;5087406;28;20094;-78
2021/10/03 04:29:18;;;;;;;6.15;4.30;;;17.70;99.90;;;;;;5067906;28;20032;-78
2021/10/03 04:31:44;;;;;;;6.55;4.82;;;17.70;99.90;;;;;;5074659;28;20020;-78
2021/10/03 04:34:10;;;;;;;8.15;4.85;;;17.70;99.90;;;;;;5077401;28;20377;-79
2021/10/03 04:36:36;;;;;;;4.70;4.20;;;17.70;99.90;;;;;;5088875;28;20024;-78
2021/10/03 04:39:03;;;;;;;6.32;4.78;;;17.70;99.90;;;;;;5077825;28;20423;-78
2021/10/03 04:41:28;;;;;;;7.72;4.47;;;17.70;99.90;;;;;;5084403;28;20021;-79
2021/10/03 04:43:54;;;;;;;5.68;4.38;;;17.70;99.90;;;;;;5085258;28;20035;-79
2021/10/03 04:46:20;;;;;;;7.80;4.60;;;17.70;99.90;;;;;;5065048;28;20056;-79
2021/10/03 04:48:46;;;;;;;6.75;4.82;;;17.80;99.90;;;;;;5088421;28;20492;-78
2021/10/03 04:51:13;;;;;;;6.10;4.38;;;17.80;99.90;;;;;;5079697;28;20009;-79
2021/10/03 04:53:39;;;;;;;6.55;4.93;;;17.80;99.90;;;;;;5083194;28;20031;-79
2021/10/03 04:56:05;;;;;;;7.47;5.00;;;17.80;99.90;;;;;;5078546;28;20405;-79
2021/10/03 04:58:31;;;;;;;10.38;4.85;;;17.80;99.90;;;;;;5080917;28;20040;-78
2021/10/03 05:00:58;;;;;;;6.65;4.55;;;17.80;99.90;;;;;;5089173;28;20420;-79
2021/10/03 05:03:24;;;;;;;5.28;4.32;;;17.80;99.90;;;;;;5089875;28;20530;-79
2021/10/03 05:05:51;;;;;;;6.32;5.15;;;17.80;99.90;;;;;;5084309;28;20020;-79
2021/10/03 05:08:18;;;;;;;6.75;5.28;;;17.90;99.90;;;;;;5072518;28;20035;-78
2021/10/03 05:10:44;;;;;;;6.45;4.90;;;17.80;99.90;;;;;;5089034;28;20157;-80
2021/10/03 05:13:10;;;;;;;6.00;4.85;;;17.80;99.90;;;;;;5078420;28;20016;-80
2021/10/03 05:15:36;;;;;;;7.75;4.85;;;17.90;99.90;;;;;;5077261;28;20016;-78
2021/10/03 05:18:02;;;;;;;7.20;5.43;;;17.90;99.90;;;;;;5077865;28;20365;-78
2021/10/03 05:20:28;;;;;;;8.55;5.22;;;18.00;99.90;;;;;;5074185;28;20017;-79
2021/10/03 05:22:54;;;;;;;5.95;4.38;;;17.90;99.90;;;;;;5076370;28;20034;-79
2021/10/03 05:25:20;;;;;;;11.10;5.38;;;18.00;99.90;;;;;;5084117;28;20024;-79
2021/10/03 05:27:47;;;;;;;6.18;5.10;;;17.90;99.90;;;;;;5074426;28;20033;-78
2021/10/03 05:30:13;;;;;;;7.18;5.63;;;18.00;99.90;;;;;;5087185;28;20024;-78
2021/10/03 05:32:41;;;;;;;10.60;5.85;;;18.00;99.90;;;;;;5068423;28;20017;-78
2021/10/03 05:35:07;;;;;;;10.00;6.22;;;18.00;99.90;;;;;;5085913;28;20107;-78
2021/10/03 05:37:34;;;;;;;9.30;6.30;;;17.90;99.90;;;;;;5081085;28;20024;-78
2021/10/03 05:40:00;;;;;;;8.05;6.10;;;18.00;99.90;;;;;;5077353;28;20583;-78
2021/10/03 05:42:26;;;;;;;7.63;6.00;;;18.00;99.90;;;;;;5088123;28;20088;-78
2021/10/03 05:44:52;;;;;;;7.63;5.40;;;18.00;99.90;;;;;;5075967;28;20073;-78
2021/10/03 05:47:18;;;;;;;10.35;5.95;;;17.90;99.90;;;;;;5067366;28;20028;-78
2021/10/03 05:49:44;;;;;;;8.15;6.20;;;18.00;99.90;;;;;;5081186;28;20021;-79
2021/10/03 05:52:10;;;;;;;7.82;5.78;;;18.00;99.90;;;;;;5086638;28;20024;-78
2021/10/03 05:54:36;;;;;;;11.82;6.28;;;18.00;99.90;;;;;;5075462;28;20099;-78
2021/10/03 05:57:03;;;;;;;6.60;5.93;;;18.00;99.90;;;;;;5086840;28;20052;-77
2021/10/03 05:59:29;;;;;;;9.55;5.80;;;18.00;99.90;;;;;;5085309;28;20138;-77
2021/10/03 06:01:56;;;;;;;5.93;4.97;;;17.90;99.90;;;;;;5078400;28;20036;-78
2021/10/03 06:04:22;;;;;;;6.00;5.40;;;17.80;99.90;;;;;;5085519;28;20024;-78
2021/10/03 06:06:48;;;;;;;6.70;5.78;;;17.80;99.90;;;;;;5073690;28;20054;-78
2021/10/03 06:09:14;;;;;;;8.63;5.57;;;17.80;99.90;;;;;;5085178;28;20505;-79
2021/10/03 06:11:40;;;;;;;8.05;5.40;;;17.70;99.90;;;;;;5072255;28;20103;-78
2021/10/03 06:14:06;;;;;;;8.48;5.90;;;17.70;99.90;;;;;;5085810;28;20024;-78
2021/10/03 06:16:33;;;;;;;8.23;5.93;;;17.60;99.90;;;;;;5062712;28;20057;-77
2021/10/03 06:18:59;;;;;;;8.15;5.65;;;17.60;99.90;;;;;;5086814;28;20027;-78
2021/10/03 06:21:26;;;;;;;9.68;6.40;;;17.60;99.90;;;;;;5080150;28;20024;-78
2021/10/03 06:23:52;;;;;;;6.82;5.80;;;17.60;99.90;;;;;;5079612;28;20020;-78
2021/10/03 06:26:18;;;;;;;9.48;5.95;;;17.60;99.90;;;;;;5087596;28;20038;-79
2021/10/03 06:28:45;;;;;;;7.93;5.68;;;17.50;99.90;;;;;;5074379;28;20037;-78
2021/10/03 06:31:11;;;;;;;9.43;6.30;;;17.50;99.90;;;;;;5085619;28;20469;-80
2021/10/03 06:33:39;;;;;;;8.85;5.97;;;17.50;99.90;;;;;;5081697;28;20043;-78
2021/10/03 06:36:06;;;;;;;7.45;5.40;;;17.50;99.90;;;;;;5077540;28;20726;-78
2021/10/03 06:38:32;;;;;;;8.40;5.85;;;17.60;99.90;;;;;;5088040;28;20388;-78
2021/10/03 06:40:58;;;;;;;11.20;6.65;;;17.60;99.90;;;;;;5066752;28;20484;-80
2021/10/03 06:43:24;;;;;;;11.88;7.07;;;17.50;99.90;;;;;;5084521;28;20031;-78
2021/10/03 06:45:52;;;;;;;9.52;5.93;;;17.50;99.90;;;;;;5071233;28;20027;-78
2021/10/03 06:48:18;;;;;;;10.95;6.80;;;17.50;99.90;;;;;;5085893;28;20490;-78
2021/10/03 06:50:44;;;;;;;7.07;6.35;;;17.60;99.90;;;;;;5078522;28;20016;-81
2021/10/03 06:53:10;;;;;;;7.10;6.32;;;17.50;99.90;;;;;;5089007;28;20029;-78
2021/10/03 06:55:36;;;;;;;11.27;7.20;;;17.50;99.90;;;;;;5085130;28;20024;-78
2021/10/03 06:58:03;;;;;;;9.57;6.82;;;17.50;99.90;;;;;;5079530;28;20120;-78
2021/10/03 07:00:30;;;;;;;7.68;6.70;;;17.60;99.90;;;;;;5086633;28;20024;-78
2021/10/03 07:02:56;;;;;;;8.05;6.40;;;17.60;99.90;;;;;;5090273;28;20380;-78
2021/10/03 07:05:23;;;;;;;12.25;7.72;;;17.60;99.90;;;;;;5078856;28;20024;-78
2021/10/03 07:07:49;;;;;;;8.05;7.13;;;17.60;99.90;;;;;;5066729;28;20040;-78
2021/10/03 07:10:15;;;;;;;10.10;8.05;;;17.70;99.90;;;;;;5076529;28;20222;-77
2021/10/03 07:12:41;;;;;;;11.38;7.32;;;17.60;99.90;;;;;;5073862;28;20116;-78
2021/10/03 07:15:08;;;;;;;8.15;6.93;;;17.60;99.90;;;;;;5076586;28;20029;-77
2021/10/03 07:17:34;;;;;;;9.52;7.88;;;17.60;99.90;;;;;;5072311;28;20096;-77
2021/10/03 07:20:00;;;;;;;8.77;6.85;;;17.60;99.90;;;;;;5079397;28;20493;-77
2021/10/03 07:22:27;;;;;;;13.35;6.25;;;17.60;99.90;;;;;;5074957;28;20028;-77
2021/10/03 07:24:53;;;;;;;10.48;7.65;;;17.60;99.90;;;;;;5070175;28;20032;-78
2021/10/03 07:27:19;;;;;;;13.63;7.18;;;17.70;99.90;;;;;;5067111;28;20051;-78
2021/10/03 07:29:45;;;;;;;12.30;9.20;;;17.70;99.90;;;;;;5075924;28;20054;-77
2021/10/03 07:32:11;;;;;;;12.43;7.53;;;17.70;99.90;;;;;;5075508;28;20039;-78
2021/10/03 07:34:37;;;;;;;9.70;7.30;;;17.70;99.90;;;;;;5078339;28;20027;-77
2021/10/03 07:37:04;;;;;;;11.88;8.18;;;17.70;99.90;;;;;;5070734;28;20153;-76
2021/10/03 07:39:31;;;;;;;13.23;8.48;;;17.70;99.90;;;;;;5076980;28;20024;-77
2021/10/03 07:41:57;;;;;;;9.85;7.15;;;17.80;99.90;;;;;;5075471;28;20060;-78
2021/10/03 07:44:24;;;;;;;10.15;8.18;;;17.80;99.90;;;;;;5073880;28;20476;-78
2021/10/03 07:46:51;;;;;;;12.02;8.50;;;17.80;99.90;;;;;;5065193;28;20036;-77
2021/10/03 07:49:17;;;;;;;13.98;8.98;;;17.80;99.90;;;;;;5073093;28;20028;-79
2021/10/03 07:51:43;;;;;;;10.25;8.90;;;17.80;99.90;;;;;;5074086;28;20028;-78
2021/10/03 07:54:09;;;;;;;8.93;7.78;;;17.80;99.90;;;;;;5071001;28;20032;-78
2021/10/03 07:56:36;;;;;;;10.38;7.63;;;17.90;99.90;;;;;;5076937;28;20090;-78
2021/10/03 07:59:02;;;;;;;10.13;7.80;;;18.00;99.90;;;;;;5073411;28;20029;-77
2021/10/03 08:01:29;;;;;;;12.60;8.27;;;17.90;99.90;;;;;;5077332;28;20027;-78
2021/10/03 08:03:55;;;;;;;8.80;7.90;;;17.90;99.90;;;;;;5086321;28;20468;-78
2021/10/03 08:06:22;;;;;;;12.50;8.68;;;18.00;99.90;;;;;;5070256;28;20028;-78
2021/10/03 08:08:49;;;;;;;11.95;8.80;;;18.00;99.90;;;;;;5072580;28;20488;-79
2021/10/03 08:11:16;;;;;;;12.93;9.23;;;18.00;99.90;;;;;;5074707;28;20661;-79
2021/10/03 08:13:42;;;;;;;12.02;8.73;;;18.10;99.90;;;;;;5078857;28;20025;-79
2021/10/03 08:16:08;;;;;;;10.23;7.97;;;18.10;99.90;;;;;;5072419;28;20499;-78
2021/10/03 08:18:35;;;;;;;10.57;8.35;;;18.10;99.90;;;;;;5074744;28;20016;-77
2021/10/03 08:21:02;;;;;;;14.88;9.98;;;18.10;99.90;;;;;;5078101;28;20024;-77
2021/10/03 08:23:29;;;;;;;13.15;8.88;;;18.10;99.90;;;;;;5075889;28;20027;-79
2021/10/03 08:25:56;;;;;;;18.70;10.05;;;18.20;99.90;;;;;;5075055;28;20032;-78
2021/10/03 08:28:23;;;;;;;14.98;9.95;;;18.20;99.90;;;;;;5074463;28;20039;-78
2021/10/03 08:30:49;;;;;;;12.63;9.07;;;18.30;99.90;;;;;;5080854;28;20020;-78
2021/10/03 08:33:16;;;;;;;13.18;9.10;;;18.40;99.90;;;;;;5080598;28;20028;-78
2021/10/03 08:35:42;;;;;;;14.02;9.30;;;18.40;99.90;;;;;;5075589;28;20111;-78
2021/10/03 08:38:10;;;;;;;10.50;8.23;;;18.40;99.90;;;;;;5074088;28;20411;-78
2021/10/03 08:40:37;;;;;;;8.02;6.20;;;18.30;99.90;;;;;;5079802;28;20055;-78
2021/10/03 08:43:08;;;;;;;6.25;4.95;;;18.20;99.90;;;;;;5070960;28;20483;-77
2021/10/03 08:45:41;;;;;;;5.70;3.97;;;18.10;99.90;;;;;;5069037;28;20021;-75
2021/10/03 08:48:09;;;;;;;4.07;3.67;;;18.00;99.90;;;;;;5063729;28;20044;-76
2021/10/03 08:50:35;;;;;;;4.03;3.72;;;18.00;99.90;;;;;;5065508;28;20055;-76
2021/10/03 08:53:02;;;;;;;4.95;4.30;;;17.90;99.90;;;;;;5065469;28;20065;-77
2021/10/03 08:55:28;;;;;;;3.55;3.25;;;17.80;99.90;;;;;;5074284;28;20024;-79
2021/10/03 08:57:54;;;;;;;3.20;3.00;;;17.80;99.90;;;;;;5065597;28;20087;-77
2021/10/03 09:00:23;;;;;;;3.92;3.50;;;17.70;99.90;;;;;;5065317;28;20496;-78
2021/10/03 09:03:02;;;;;;;3.97;3.53;;;17.80;99.90;;;;;;5090781;28;20472;-78
2021/10/03 09:05:37;;;;;;;3.53;3.22;;;17.70;99.90;;;;;;5071900;28;20104;-78
2021/10/03 09:08:08;;;;;;;3.88;3.15;;;17.80;99.90;;;;;;5081095;28;20468;-78
2021/10/03 09:10:49;;;;;;;3.67;3.38;;;17.70;99.90;;;;;;5075072;28;20021;-78
2021/10/03 09:13:18;;;;;;;3.90;3.60;;;17.70;99.90;;;;;;5084935;28;20024;-80
2021/10/03 09:15:46;;;;;;;3.53;3.15;;;17.70;99.90;;;;;;5069987;28;20106;-77
2021/10/03 09:18:16;;;;;;;3.65;3.33;;;17.70;99.90;;;;;;5080475;28;20016;-78
2021/10/03 09:20:43;;;;;;;3.72;3.50;;;17.70;99.90;;;;;;5074910;28;20483;-78
2021/10/03 09:23:15;;;;;;;3.65;3.35;;;17.70;99.90;;;;;;5083280;28;20022;-79
2021/10/03 09:25:49;;;;;;;4.05;3.13;;;17.60;99.90;;;;;;5072179;28;20697;-78
2021/10/03 09:28:22;;;;;;;3.53;2.42;;;17.60;99.90;;;;;;5062813;28;20037;-80
2021/10/03 09:30:56;;;;;;;3.10;1.50;;;17.50;99.90;;;;;;5063698;28;20020;-78
2021/10/03 09:33:23;;;;;;;2.13;1.23;;;17.50;99.90;;;;;;5062158;28;20047;-78
2021/10/03 09:35:58;;;;;;;3.20;0.80;;;17.50;99.90;;;;;;5074242;28;20029;-77
2021/10/03 09:38:28;;;;;;;0.60;0.47;;;17.40;99.90;;;;;;5067410;28;20538;-77
2021/10/03 09:41:03;;;;;;;1.73;0.47;;;17.40;99.90;;;;;;5059442;28;20012;-79
2021/10/03 09:43:41;;;;;;;1.23;0.55;;;17.40;99.90;;;;;;5081326;28;20025;-80
2021/10/03 09:46:08;;;;;;;1.92;0.50;;;17.40;99.90;;;;;;5065243;28;20025;-81
2021/10/03 09:48:48;;;;;;;1.27;0.43;;;17.40;99.90;;;;;;5085434;28;20434;-80
2021/10/03 09:51:15;;;;;;;3.22;0.70;;;17.40;99.90;;;;;;5077738;28;20016;-80
2021/10/03 09:53:44;;;;;;;3.03;0.60;;;17.40;99.90;;;;;;5078757;28;20024;-78
2021/10/03 09:56:10;;;;;;;1.83;0.50;;;17.30;99.90;;;;;;5086075;28;20028;-79
2021/10/03 09:58:38;;;;;;;1.08;0.60;;;17.30;99.90;;;;;;5073746;28;20054;-79
2021/10/03 10:01:04;;;;;;;1.75;0.47;;;17.40;99.90;;;;;;5086134;28;20457;-80
2021/10/03 10:03:40;;;;;;;1.85;0.57;;;17.30;99.90;;;;;;5070936;28;20032;-79
2021/10/03 10:06:07;;;;;;;2.05;0.65;;;17.30;99.90;;;;;;5084446;28;20066;-78
2021/10/03 10:08:38;;;;;;;0.80;0.38;;;17.40;99.90;;;;;;5086093;28;20043;-79
2021/10/03 10:11:17;;;;;;;1.83;0.65;;;17.40;99.90;;;;;;5071395;28;20049;-79
2021/10/03 10:13:54;;;;;;;0.50;0.50;;;17.50;99.90;;;;;;5081892;28;20032;-78
2021/10/03 10:16:26;;;;;;;1.10;0.32;;;17.30;99.90;;;;;;5060327;28;20032;-82
2021/10/03 10:19:12;;;;;;;0.95;0.60;;;17.30;99.90;;;;;;5078489;28;20042;-79
2021/10/03 10:21:38;;;;;;;2.40;0.68;;;17.40;99.90;;;;;;5079332;28;20025;-80
2021/10/03 10:24:41;;;;;;;0.65;0.50;;;17.40;99.90;;;;;;5077847;28;20332;-81
2021/10/03 10:27:07;;;;;;;2.05;0.70;;;17.40;99.90;;;;;;5075257;28;20051;-79
2021/10/03 10:29:53;;;;;;;1.08;0.70;;;17.30;99.90;;;;;;5081380;28;20745;-79
2021/10/03 10:32:22;;;;;;;1.02;0.80;;;17.40;99.90;;;;;;5075360;28;20078;-78
2021/10/03 10:35:07;;;;;;;0.98;0.70;;;17.40;99.90;;;;;;5064618;28;20035;-78
2021/10/03 10:37:53;;;;;;;0.80;0.70;;;17.30;99.90;;;;;;5076063;28;20016;-79
2021/10/03 10:40:22;;;;;;;2.25;0.70;;;17.40;99.90;;;;;;5089001;28;20471;-78
2021/10/03 10:42:52;;;;;;;2.90;1.05;;;17.40;99.90;;;;;;5076538;28;20050;-79
2021/10/03 10:45:30;;;;;;;2.72;0.95;;;17.30;99.90;;;;;;5084503;28;20024;-80
2021/10/03 10:48:22;;;;;;;1.95;1.10;;;17.30;99.90;;;;;;5070641;28;20049;-79
2021/10/03 10:50:51;;;;;;;4.13;1.40;;;17.30;99.90;;;;;;5074112;28;20029;-80
2021/10/03 10:53:27;;;;;;;2.75;1.60;;;17.30;99.90;;;;;;5085819;28;20020;-80
2021/10/03 10:56:18;;;;;;;2.30;1.98;;;17.30;99.90;;;;;;5086527;28;20032;-80
2021/10/03 10:59:05;;;;;;;2.22;2.03;;;17.20;99.90;;;;;;5077443;28;20029;-79
2021/10/03 11:01:31;;;;;;;2.60;2.38;;;17.30;99.90;;;;;;5085003;28;20028;-81
2021/10/03 11:04:01;;;;;;;3.65;3.35;;;17.30;99.90;;;;;;5085382;28;20077;-81
2021/10/03 11:06:27;;;;;;;2.90;2.60;;;17.30;99.90;;;;;;5076804;28;20028;-81
2021/10/03 11:09:06;;;;;;;3.03;2.55;;;17.30;99.90;;;;;;5090616;28;20119;-81
2021/10/03 11:11:35;;;;;;;3.13;2.38;;;17.30;99.90;;;;;;5070723;28;20056;-80
2021/10/03 11:14:10;;;;;;;4.20;2.97;;;17.40;99.90;;;;;;5086389;28;20105;-79
2021/10/03 11:16:43;;;;;;;3.45;3.15;;;17.40;99.90;;;;;;5067221;28;20382;-81
2021/10/03 11:19:11;;;;;;;3.45;3.15;;;17.20;99.90;;;;;;5080332;28;20429;-80
2021/10/03 11:21:49;;;;;;;5.40;4.28;;;17.30;99.90;;;;;;5083568;28;20028;-79
2021/10/03 11:24:22;;;;;;;7.22;3.55;;;17.20;99.90;;;;;;5071706;28;20021;-80
2021/10/03 11:26:57;;;;;;;4.40;4.00;;;17.10;99.90;;;;;;5076810;28;20032;-80
2021/10/03 11:29:29;;;;;;;4.18;3.83;;;17.10;99.90;;;;;;5062452;28;20021;-79
2021/10/03 11:31:58;;;;;;;4.28;3.97;;;17.20;99.90;;;;;;5069514;28;20108;-79
2021/10/03 11:34:36;;;;;;;4.47;3.42;;;17.30;99.90;;;;;;5058649;28;20028;-79
2021/10/03 11:37:15;;;;;;;4.47;4.07;;;17.40;99.90;;;;;;5069736;28;20027;-79
2021/10/03 11:39:45;;;;;;;4.00;3.70;;;17.40;99.90;;;;;;5082457;28;20106;-79
2021/10/03 11:42:18;;;;;;;5.05;3.83;;;17.40;99.90;;;;;;5087715;28;20487;-78
2021/10/03 11:44:46;;;;;;;4.55;3.47;;;17.20;99.90;;;;;;5076685;28;20020;-82
2021/10/03 11:47:16;;;;;;;3.95;3.28;;;17.10;99.90;;;;;;5073877;28;20461;-79
2021/10/03 11:49:45;;;;;;;3.75;3.40;;;17.20;99.90;;;;;;5070783;28;20048;-82
2021/10/03 11:52:25;;;;;;;3.40;3.10;;;17.10;99.90;;;;;;5067819;28;20025;-83
2021/10/03 11:54:54;;;;;;;5.10;3.70;;;17.20;99.90;;;;;;5060476;28;20027;-75
2021/10/03 11:57:29;;;;;;;4.93;3.60;;;17.20;99.90;;;;;;5084826;28;20389;-84
2021/10/03 12:00:13;;;;;;;5.07;3.80;;;17.20;99.90;;;;;;5086307;28;20103;-81
2021/10/03 12:02:48;;;;;;;6.68;4.20;;;17.30;99.90;;;;;;5069999;28;20736;-93
2021/10/03 12:05:20;;;;;;;6.85;6.35;;;17.40;99.90;;;;;;5064809;28;20110;-93
2021/10/03 12:08:07;;;;;;;4.75;3.92;;;17.50;99.90;;;;;;5068897;28;20036;-91
2021/10/03 12:11:00;;;;;;;3.80;3.50;;;17.50;99.90;;;;;;5075419;28;20153;-90
2021/10/03 12:13:27;;;;;;;;;;;17.50;99.90;;;;;;5064301;28;20021;-94
2021/10/03 12:16:17;;;;;;;4.82;3.83;;;17.40;99.90;;;;;;5068320;28;20483;-93
2021/10/03 12:18:59;;;;;;;5.03;3.60;;;17.50;99.90;;;;;;5054915;28;20036;-92
2021/10/03 12:21:24;;;;;;;7.70;7.00;;;17.50;99.90;;;;;;5054687;28;20025;-93
2021/10/03 12:29:28;;;;;;;4.82;3.40;;;17.70;99.90;;;;;;4912954;22;20160;-74
2021/10/03 12:31:54;;;;;;;4.57;3.80;;;17.70;99.90;;;;;;5093585;22;20130;-74
2021/10/03 12:34:22;;;;;;;4.95;4.45;;;17.70;99.90;;;;;;5094523;28;20027;-73
2021/10/03 12:36:54;;;;;;;4.82;4.43;;;17.70;99.90;;;;;;5093626;28;20020;-75
2021/10/03 12:39:24;;;;;;;5.50;4.85;;;17.80;99.90;;;;;;5091742;28;20031;-73
2021/10/03 12:41:53;;;;;;;5.28;4.78;;;17.80;99.90;;;;;;5090463;28;20035;-77
2021/10/03 12:44:23;;;;;;;5.75;5.20;;;17.90;99.90;;;;;;5072130;28;20016;-75
2021/10/03 12:46:49;;;;;;;6.43;5.82;;;17.80;99.90;;;;;;5086352;28;20063;-80
2021/10/03 12:49:14;;;;;;;10.50;6.70;;;17.80;99.90;;;;;;5092205;28;20069;-81
2021/10/03 12:51:40;;;;;;;9.02;7.35;;;17.80;99.90;;;;;;5078500;28;20119;-80
2021/10/03 12:54:06;;;;;;;7.78;7.07;;;17.80;99.90;;;;;;5092385;28;20402;-80
2021/10/03 12:56:32;;;;;;;8.25;6.93;;;17.80;99.90;;;;;;5091471;28;20031;-80
2021/10/03 12:58:57;;;;;;;7.65;6.97;;;17.80;99.90;;;;;;5091308;28;20020;-80